Terminal Aerodrome Forecast
Issued by NWS Wilmington, OH

Current Version | Previous Version | Text Only | Print | Product List | Glossary Off
Versions: 1 2 3 4 5 6 7 8 9 10 11 12 13 14 15 16 17 18 19 20 21 22 23 24 25 26 27 28

681
FTUS41 KILN 191326 AAA
TAFCVG
TAF AMD
KCVG 191326Z 1913/2018 11004KT 5SM BR OVC250
     FM191600 12007KT P6SM OVC120
     FM192300 12009KT P6SM VCSH OVC040
     FM200100 11010KT 5SM -RA BR OVC020
     FM200600 15006KT 3SM -RA BR OVC008
     FM201000 22007KT 3SM -RA BR OVC005=

USA.gov is the U.S. government's official web portal to all federal, state and local government web resources and services.